KPOB/POB METAR and TAF weather

Enter ICAO airport designator
Station Type Date Time Source
KPOB METAR 2020/07/06 07:56 UTC NOAA

KPOB 060756Z AUTO 00000KT 10SM CLR 21/21 A3002 RMK AO2 SLP167 T02130208 $


Station Type Date Time Source
KPOB Decoded METAR 2020/07/06 07:56 UTC NOAA

Pope Air Force Base, NC, United States (KPOB) 35-10N 079-02W 61M
Jul 06, 2020 - 03:56 AM EDT / 2020.07.06 0756 UTC
Wind: Calm:0
Visibility: 10 mile(s):0
Sky conditions: clear
Temperature: 70.3 F (21.3 C)
Dew Point: 69.4 F (20.8 C)
Relative Humidity: 96%
Pressure (altimeter): 30.02 in. Hg (1016 hPa)
ob: KPOB 060756Z AUTO 00000KT 10SM CLR 21/21 A3002 RMK AO2 SLP167 T02130208
cycle: 8

Station Type Date Time Source
KPOB TAF 2020/07/06 01:08 UTC NOAA

TAF KPOB 060100Z 0601/0707 17006KT 9999 SCT050 QNH2995INS
BECMG 0619/0620 17006KT 9000 -SHRA BKN045 QNH3002INS
TEMPO 0620/0622 16010G15KT 8000 -TSRA BKN040CB
BECMG 0701/0702 16006KT 9999 NSW SCT050 QNH3000INS TX34/0621Z TN21/0610Z

Example: see airport list